Time;durP1;ratioP1;P1;durP2;ratioP2;P2;SDS_P1;SDS_P2;PMS_P1;PMS_P2;Temp;Humidity;BMP_temperature;BMP_pressure;BME280_temperature;BME280_humidity;BME280_pressure;Samples;Min_cycle;Max_cycle;Signal;HPM_P1;HPM_P2
2022/12/29 00:00:17;;;;;;;;;72.00;61.00;;;;;21.01;51.02;95308.22;5002830;28;8842;-68
2022/12/29 00:02:44;;;;;;;;;74.75;63.25;;;;;21.03;50.29;95307.78;5000677;28;10314;-69
2022/12/29 00:05:11;;;;;;;;;66.00;56.25;;;;;21.02;50.34;95311.78;5004923;28;10323;-68
2022/12/29 00:07:38;;;;;;;;;77.25;65.25;;;;;21.04;50.47;95301.03;5001595;28;9404;-68
2022/12/29 00:10:06;;;;;;;;;75.00;61.25;;;;;21.05;50.69;95297.06;5002326;28;9886;-69
2022/12/29 00:15:37;;;;;;;;;68.25;58.00;;;;;21.05;50.26;95299.81;5001136;28;9456;-69
2022/12/29 00:18:05;;;;;;;;;66.00;57.25;;;;;21.05;50.15;95299.03;5002689;28;10145;-68
2022/12/29 00:45:46;;;;;;;;;67.00;57.00;;;;;21.08;50.38;95259.34;5004508;28;9648;-68
2022/12/29 00:48:13;;;;;;;;;70.33;59.33;;;;;21.08;50.30;95260.13;5001291;28;9240;-67
2022/12/29 00:50:40;;;;;;;;;66.00;57.00;;;;;21.07;50.19;95260.56;5002591;28;9455;-67
2022/12/29 00:53:07;;;;;;;;;67.25;57.25;;;;;21.08;50.36;95262.88;5004722;28;9862;-69
2022/12/29 00:55:38;;;;;;;;;65.25;55.25;;;;;21.06;50.14;95262.56;5005293;28;8886;-67
2022/12/29 00:58:05;;;;;;;;;73.50;62.25;;;;;21.08;50.24;95259.34;5002285;28;9681;-68
2022/12/29 01:00:32;;;;;;;;;73.75;62.25;;;;;21.10;50.03;95260.47;5001727;28;9903;-69
2022/12/29 01:03:00;;;;;;;;;65.25;57.00;;;;;21.08;50.13;95251.81;5004489;28;10694;-67
2022/12/29 01:05:27;;;;;;;;;66.00;56.50;;;;;21.08;50.16;95245.50;5006705;28;8859;-68
2022/12/29 01:07:54;;;;;;;;;66.00;56.00;;;;;21.07;50.10;95241.94;5004178;28;8864;-68
2022/12/29 01:10:20;;;;;;;;;73.75;62.50;;;;;21.06;50.13;95237.63;4998477;28;9920;-67
2022/12/29 01:12:49;;;;;;;;;74.00;62.67;;;;;21.09;49.99;95235.97;4970509;28;9868;-68
2022/12/29 01:15:16;;;;;;;;;76.00;63.50;;;;;21.09;49.83;95238.75;4983992;28;10121;-67
2022/12/29 01:17:44;;;;;;;;;66.25;57.00;;;;;21.07;50.06;95238.38;5004243;28;9706;-69
2022/12/29 01:20:11;;;;;;;;;66.00;56.00;;;;;21.08;49.78;95246.25;5000586;28;9706;-69
2022/12/29 01:22:39;;;;;;;;;64.00;56.00;;;;;21.08;49.85;95240.72;5003410;28;9787;-69
2022/12/29 01:25:07;;;;;;;;;71.00;60.00;;;;;21.07;49.76;95246.72;4981827;28;9657;-69
2022/12/29 01:27:34;;;;;;;;;65.00;56.00;;;;;21.08;49.72;95242.72;5001670;28;9955;-69
2022/12/29 01:30:01;;;;;;;;;67.00;57.00;;;;;21.07;49.92;95243.94;4985886;28;8846;-69
2022/12/29 01:32:27;;;;;;;;;77.25;64.25;;;;;21.07;49.99;95241.94;5004386;28;8855;-68
2022/12/29 01:34:54;;;;;;;;;68.25;58.25;;;;;21.07;49.86;95244.69;5001579;28;9886;-68
2022/12/29 01:37:21;;;;;;;;;65.25;56.00;;;;;21.11;49.74;95236.31;4985989;28;9378;-67
2022/12/29 01:39:48;;;;;;;;;66.50;57.00;;;;;21.11;49.76;95239.84;4992550;28;10662;-67
2022/12/29 01:42:22;;;;;;;;;77.00;64.25;;;;;21.10;49.81;95229.97;5003874;28;9669;-68
2022/12/29 01:44:53;;;;;;;;;68.25;58.25;;;;;21.07;49.77;95232.84;4986398;28;9873;-67
2022/12/29 01:47:40;;;;;;;;;68.00;57.25;;;;;21.05;49.86;95230.53;5002988;28;9703;-67
2022/12/29 01:50:39;;;;;;;;;77.50;64.50;;;;;21.07;49.94;95222.53;4985614;28;9376;-68
2022/12/29 01:53:11;;;;;;;;;68.25;58.25;;;;;21.08;49.57;95226.09;4987082;28;10153;-67
2022/12/29 01:55:46;;;;;;;;;71.25;60.25;;;;;21.07;49.77;95228.06;5003700;28;9359;-67
2022/12/29 01:58:17;;;;;;;;;74.75;62.50;;;;;21.07;49.57;95241.94;4983142;28;9979;-67
2022/12/29 02:00:44;;;;;;;;;81.25;66.25;;;;;21.07;49.41;95239.16;4986036;28;9960;-67
2022/12/29 02:03:12;;;;;;;;;67.25;58.00;;;;;21.08;49.58;95231.63;4998986;28;10766;-67
2022/12/29 02:05:52;;;;;;;;;66.00;56.00;;;;;21.08;49.62;95232.41;5006069;28;8840;-67
2022/12/29 02:08:22;;;;;;;;;77.50;64.50;;;;;21.07;49.71;95233.63;4986776;28;9536;-67
2022/12/29 02:10:49;;;;;;;;;77.25;65.00;;;;;21.06;49.53;95232.09;4984994;28;9938;-67
2022/12/29 02:13:19;;;;;;;;;68.50;58.50;;;;;21.05;49.63;95233.28;4985265;28;10415;-67
2022/12/29 02:16:09;;;;;;;;;77.50;64.25;;;;;21.06;49.54;95228.53;4984489;28;9144;-69
2022/12/29 02:18:44;;;;;;;;;71.67;60.67;;;;;21.08;49.50;95237.94;4993190;28;9797;-69
2022/12/29 02:21:29;;;;;;;;;80.25;65.50;;;;;21.06;49.57;95226.53;4997857;28;9723;-69
2022/12/29 02:24:22;;;;;;;;;68.00;58.00;;;;;21.02;49.59;95234.97;4985224;28;11597;-69
2022/12/29 02:26:55;;;;;;;;;78.00;64.25;;;;;21.03;49.56;95230.19;5002585;28;9280;-69
2022/12/29 02:29:36;;;;;;;;;67.75;57.00;;;;;21.05;49.31;95244.38;4987004;28;10041;-69
2022/12/29 02:32:25;;;;;;;;;69.00;59.00;;;;;21.06;49.29;95234.06;4984199;28;8872;-70
2022/12/29 02:35:46;;;;;;;;;79.75;66.25;;;;;21.05;49.26;95230.53;5003575;28;9087;-67
2022/12/29 02:38:42;;;;;;;;;67.75;57.75;;;;;21.02;49.12;95229.41;4953888;28;10462;-68
2022/12/29 02:41:39;;;;;;;;;69.00;59.00;;;;;21.02;49.05;95223.88;4956287;28;9314;-70
2022/12/29 02:44:11;;;;;;;;;66.25;57.00;;;;;21.03;49.07;95227.41;4955139;28;9738;-69
2022/12/29 02:46:55;;;;;;;;;69.25;58.00;;;;;21.00;49.22;95229.06;4960968;28;10759;-69
2022/12/29 02:49:27;;;;;;;;;68.25;58.25;;;;;21.03;49.05;95227.41;4957619;28;9190;-67
2022/12/29 02:52:03;;;;;;;;;68.00;58.00;;;;;21.04;48.76;95231.75;4951094;28;9234;-69
2022/12/29 02:54:43;;;;;;;;;72.00;61.00;;;;;21.02;48.73;95234.97;4950434;28;10222;-69
2022/12/29 02:57:37;;;;;;;;;74.25;62.00;;;;;21.02;48.92;95229.41;4956499;28;9818;-68
2022/12/29 03:00:14;;;;;;;;;70.25;59.00;;;;;21.05;48.75;95226.97;4944262;28;9707;-70
2022/12/29 03:03:05;;;;;;;;;67.00;57.00;;;;;21.02;48.58;95223.88;4957524;28;8826;-70
2022/12/29 03:05:33;;;;;;;;;68.25;58.25;;;;;21.04;48.44;95217.88;4957031;28;9796;-66
2022/12/29 03:08:34;;;;;;;;;67.75;57.00;;;;;21.01;48.58;95225.09;4954618;28;9185;-71
2022/12/29 03:12:07;;;;;;;;;78.50;65.50;;;;;21.03;48.53;95221.88;4957017;28;9273;-68
2022/12/29 03:17:22;;;;;;;;;68.25;58.25;;;;;21.02;48.71;95214.75;5008072;28;9253;-69
2022/12/29 03:20:20;;;;;;;;;79.25;66.25;;;;;21.03;48.62;95210.78;5004078;28;9343;-68
2022/12/29 03:23:00;;;;;;;;;79.00;65.00;;;;;21.01;48.69;95211.22;4913078;29;10173;-70
2022/12/29 03:25:36;;;;;;;;;68.25;58.25;;;;;21.05;48.93;95207.56;4925548;29;10103;-68
2022/12/29 03:28:21;;;;;;;;;68.00;58.00;;;;;21.03;48.68;95200.44;4925881;28;8882;-70
2022/12/29 03:30:50;;;;;;;;;78.50;65.25;;;;;21.02;48.88;95201.69;4924048;28;9610;-70
2022/12/29 03:33:23;;;;;;;;;75.75;62.25;;;;;21.01;49.01;95199.34;4920167;28;10386;-67
2022/12/29 03:36:11;;;;;;;;;75.00;63.00;;;;;21.05;48.70;95196.47;4915577;28;10510;-70
2022/12/29 03:38:51;;;;;;;;;76.50;64.00;;;;;21.03;48.71;95194.91;4931385;29;9640;-70
2022/12/29 03:41:25;;;;;;;;;78.00;65.00;;;;;21.01;48.78;95193.81;4913916;28;10160;-68
2022/12/29 03:43:52;;;;;;;;;68.25;58.25;;;;;21.00;48.73;95192.25;4918936;28;11730;-66
2022/12/29 03:46:19;;;;;;;;;76.75;64.25;;;;;21.00;48.83;95192.25;4919740;28;9638;-66
2022/12/29 03:48:46;;;;;;;;;68.25;58.25;;;;;20.99;48.69;95183.16;4924610;28;10408;-67
2022/12/29 03:51:13;;;;;;;;;74.25;61.25;;;;;21.01;48.79;95177.16;4911178;28;9638;-66
2022/12/29 03:53:40;;;;;;;;;78.25;64.75;;;;;21.02;48.71;95178.72;4931119;28;9811;-67
2022/12/29 03:56:07;;;;;;;;;68.25;58.25;;;;;21.00;48.76;95176.41;4919560;29;10939;-67
2022/12/29 03:58:34;;;;;;;;;68.00;58.00;;;;;21.02;48.60;95173.19;4923880;28;9275;-67
2022/12/29 04:01:10;;;;;;;;;76.25;64.00;;;;;21.01;48.60;95171.63;4981057;28;9584;-66
2022/12/29 04:03:38;;;;;;;;;79.25;66.25;;;;;20.99;48.69;95161.00;5003014;28;10694;-66
2022/12/29 04:06:05;;;;;;;;;72.25;62.00;;;;;20.99;48.78;95177.63;5004353;28;10615;-67
2022/12/29 04:08:42;;;;;;;;;65.50;56.00;;;;;20.99;48.85;95157.44;4994087;28;9509;-66
2022/12/29 04:11:09;;;;;;;;;69.67;59.33;;;;;21.00;48.68;95175.63;5009512;28;9395;-67
2022/12/29 04:13:36;;;;;;;;;68.25;59.00;;;;;21.00;48.69;95170.06;4993852;28;9543;-67
2022/12/29 04:16:03;;;;;;;;;79.25;66.00;;;;;21.01;48.56;95163.31;4985437;28;8850;-66
2022/12/29 04:18:30;;;;;;;;;77.00;64.25;;;;;21.01;48.53;95166.88;5000432;28;10360;-66
2022/12/29 04:20:59;;;;;;;;;67.75;57.00;;;;;21.01;48.56;95163.31;5008105;28;9991;-67
2022/12/29 04:23:28;;;;;;;;;68.25;58.25;;;;;20.97;48.42;95160.66;5014017;28;8856;-67
2022/12/29 04:25:56;;;;;;;;;68.00;58.00;;;;;20.97;48.64;95159.88;4995189;28;11514;-67
2022/12/29 04:28:24;;;;;;;;;78.25;66.00;;;;;20.99;48.64;95154.66;4990510;28;9401;-66
2022/12/29 04:31:22;;;;;;;;;78.00;65.00;;;;;20.98;48.41;95164.22;5005537;28;10317;-68
2022/12/29 04:33:49;;;;;;;;;69.75;59.00;;;;;20.96;48.50;95152.78;5001222;28;10328;-67
2022/12/29 04:36:16;;;;;;;;;71.75;60.75;;;;;20.98;48.33;95161.44;4981070;28;9641;-66
2022/12/29 04:38:44;;;;;;;;;68.00;58.25;;;;;20.99;48.35;95162.97;4986217;28;10519;-66
2022/12/29 04:41:12;;;;;;;;;72.75;61.25;;;;;20.95;48.71;95154.75;4985369;28;9536;-66
2022/12/29 04:43:39;;;;;;;;;67.00;57.00;;;;;20.96;48.63;95156.31;4980486;28;9411;-67
2022/12/29 04:46:08;;;;;;;;;75.50;64.00;;;;;20.97;48.56;95155.09;4986747;28;8947;-66
2022/12/29 04:48:52;;;;;;;;;68.00;58.00;;;;;20.96;48.71;95161.09;4983153;28;9951;-67
2022/12/29 04:51:45;;;;;;;;;78.75;66.00;;;;;20.95;48.68;95152.00;4982644;28;8983;-67
2022/12/29 04:54:14;;;;;;;;;68.00;58.00;;;;;20.96;48.43;95155.56;4983703;28;10296;-67
2022/12/29 04:56:43;;;;;;;;;69.25;59.25;;;;;20.97;48.34;95155.09;4988186;28;8860;-66
2022/12/29 04:59:12;;;;;;;;;71.33;60.33;;;;;20.97;48.33;95168.19;4985407;28;9564;-66
2022/12/29 05:01:42;;;;;;;;;68.25;58.25;;;;;20.96;48.40;95169.41;4986058;28;9369;-66
2022/12/29 05:04:09;;;;;;;;;68.25;58.25;;;;;20.96;48.52;95167.41;4985592;28;9599;-66
2022/12/29 05:06:37;;;;;;;;;69.25;58.25;;;;;20.95;48.20;95168.63;4985466;28;9634;-66
2022/12/29 05:09:03;;;;;;;;;75.75;64.25;;;;;20.95;48.37;95176.16;4984845;28;9464;-67
2022/12/29 05:11:31;;;;;;;;;67.75;57.75;;;;;20.96;48.22;95191.56;4986701;28;10195;-66
2022/12/29 05:13:58;;;;;;;;;78.25;65.75;;;;;20.94;48.25;95182.91;4984550;28;12144;-66
2022/12/29 05:16:24;;;;;;;;;77.25;64.25;;;;;20.93;48.13;95171.06;4985333;28;10743;-67
2022/12/29 05:18:52;;;;;;;;;77.25;65.00;;;;;20.93;48.37;95182.16;4985026;28;10129;-67
2022/12/29 05:21:19;;;;;;;;;67.00;57.00;;;;;20.94;48.15;95171.84;4984359;28;10821;-67
2022/12/29 05:23:45;;;;;;;;;69.50;58.75;;;;;20.94;48.25;95175.38;4988700;28;8864;-67
2022/12/29 05:26:14;;;;;;;;;77.25;64.75;;;;;20.95;48.13;95173.41;4984065;28;9227;-66
2022/12/29 05:28:52;;;;;;;;;68.00;58.00;;;;;20.94;48.03;95177.38;4983241;28;9854;-66
2022/12/29 05:31:19;;;;;;;;;64.00;56.00;;;;;20.94;48.22;95182.91;4983134;28;9761;-66
2022/12/29 05:33:47;;;;;;;;;72.50;61.50;;;;;20.92;48.43;95186.13;4985654;28;9729;-66
2022/12/29 05:36:14;;;;;;;;;67.50;57.75;;;;;20.94;48.06;95189.22;4987566;28;9689;-66
2022/12/29 05:38:45;;;;;;;;;68.25;58.25;;;;;20.92;48.02;95188.91;4983580;28;9657;-67
2022/12/29 05:41:12;;;;;;;;;73.75;62.25;;;;;20.94;47.97;95186.47;4988282;28;9546;-66
2022/12/29 05:43:48;;;;;;;;;67.75;57.75;;;;;20.95;47.97;95192.78;5005431;28;9400;-66
2022/12/29 05:46:53;;;;;;;;;77.75;64.75;;;;;20.92;47.97;95188.13;4931634;29;9270;-66
2022/12/29 05:49:33;;;;;;;;;78.00;65.00;;;;;20.88;47.89;95185.44;4938430;29;10189;-66
2022/12/29 05:52:19;;;;;;;;;69.25;58.00;;;;;20.90;48.02;95193.34;4928707;28;10290;-67
2022/12/29 05:54:46;;;;;;;;;67.25;57.25;;;;;20.89;48.01;95197.31;4913071;28;10742;-67
2022/12/29 05:57:16;;;;;;;;;71.50;60.50;;;;;20.89;48.06;95202.88;4917397;28;10689;-67
2022/12/29 05:59:48;;;;;;;;;67.25;56.75;;;;;20.89;48.23;95198.09;4929915;28;9572;-66
2022/12/29 06:02:15;;;;;;;;;68.75;57.25;;;;;20.87;48.07;95194.97;4922602;28;10321;-66
2022/12/29 06:04:43;;;;;;;;;71.00;60.00;;;;;20.88;48.17;95204.84;4937502;28;9783;-66
2022/12/29 06:07:10;;;;;;;;;68.00;57.75;;;;;20.90;48.15;95194.09;4925991;28;9406;-66
2022/12/29 06:09:42;;;;;;;;;66.25;57.00;;;;;20.90;48.23;95202.41;4928019;28;9147;-66
2022/12/29 06:12:09;;;;;;;;;71.33;60.33;;;;;20.89;48.08;95205.63;4931429;28;17111;-67
2022/12/29 06:14:38;;;;;;;;;67.75;57.75;;;;;20.89;48.12;95205.63;4924704;29;9516;-69
2022/12/29 06:17:05;;;;;;;;;67.25;57.25;;;;;20.89;48.00;95203.63;4949405;28;9613;-67
2022/12/29 06:19:33;;;;;;;;;66.50;57.00;;;;;20.89;48.33;95206.41;4988438;28;9061;-66
2022/12/29 06:22:00;;;;;;;;;67.25;57.00;;;;;20.91;47.97;95197.66;5005844;28;10431;-66
2022/12/29 06:24:27;;;;;;;;;68.00;58.00;;;;;20.88;48.20;95196.53;4987700;28;10138;-68
2022/12/29 06:26:54;;;;;;;;;74.50;62.50;;;;;20.90;48.16;95196.13;4988704;28;8886;-68
2022/12/29 06:29:21;;;;;;;;;68.00;57.25;;;;;20.88;48.18;95204.84;4985845;28;9755;-68
2022/12/29 06:31:49;;;;;;;;;79.50;66.25;;;;;20.86;48.25;95213.59;4970704;28;9464;-68
2022/12/29 06:34:16;;;;;;;;;78.50;64.25;;;;;20.87;48.21;95211.59;5003406;28;10039;-68
2022/12/29 06:36:43;;;;;;;;;77.75;65.00;;;;;20.89;48.13;95213.94;5004935;28;10216;-68
2022/12/29 06:39:10;;;;;;;;;77.00;64.00;;;;;20.90;48.13;95212.75;4987072;28;10037;-66
2022/12/29 06:41:37;;;;;;;;;76.25;64.00;;;;;20.88;48.18;95220.72;4987755;28;10109;-68
2022/12/29 06:44:37;;;;;;;;;75.50;64.25;;;;;20.88;48.31;95223.47;4945122;28;9726;-67
2022/12/29 06:47:08;;;;;;;;;77.50;65.25;;;;;20.86;47.99;95221.13;4944190;28;10823;-68
2022/12/29 06:49:35;;;;;;;;;78.25;65.25;;;;;20.83;48.16;95217.25;4945193;28;10738;-68
2022/12/29 06:52:03;;;;;;;;;78.00;65.00;;;;;20.81;48.19;95221.66;4946892;28;11586;-68
2022/12/29 06:54:38;;;;;;;;;68.00;58.00;;;;;20.83;48.21;95225.56;4944125;28;10290;-68
2022/12/29 06:57:05;;;;;;;;;77.25;65.00;;;;;20.81;47.77;95236.28;4946741;28;8844;-68
2022/12/29 06:59:33;;;;;;;;;67.75;58.00;;;;;20.71;48.38;95237.34;4944978;28;10026;-67
2022/12/29 07:02:01;;;;;;;;;70.00;59.50;;;;;20.86;48.25;95233.00;4941302;28;9393;-68
2022/12/29 07:04:29;;;;;;;;;77.50;64.75;;;;;20.97;48.08;95238.25;4941063;28;8890;-68
2022/12/29 07:06:56;;;;;;;;;72.50;61.00;;;;;21.05;47.65;95240.81;4941842;28;10328;-68
2022/12/29 07:09:22;;;;;;;;;70.00;59.33;;;;;21.08;47.84;95231.63;4944422;28;10271;-68
2022/12/29 07:11:50;;;;;;;;;67.25;57.25;;;;;21.09;47.83;95227.66;4949516;28;9312;-67
2022/12/29 07:14:17;;;;;;;;;68.25;57.00;;;;;21.08;47.74;95228.88;4942402;28;8908;-68
2022/12/29 07:16:43;;;;;;;;;68.00;57.00;;;;;21.09;47.91;95230.44;4943868;28;9271;-66
2022/12/29 07:19:10;;;;;;;;;68.75;59.00;;;;;21.10;47.78;95240.28;4947859;28;8955;-67
2022/12/29 07:21:37;;;;;;;;;77.25;64.25;;;;;21.08;47.85;95237.19;5008472;28;9624;-67
2022/12/29 07:24:05;;;;;;;;;72.00;61.00;;;;;21.04;48.00;95237.28;5009169;28;10148;-67
2022/12/29 07:26:31;;;;;;;;;65.25;57.00;;;;;21.05;48.06;95241.63;5007963;28;9742;-67
2022/12/29 07:29:05;;;;;;;;;66.75;57.25;;;;;21.02;48.11;95243.28;5006303;28;9511;-68
2022/12/29 07:31:32;;;;;;;;;67.50;57.50;;;;;20.99;47.87;95243.34;5008734;28;9468;-66
2022/12/29 07:33:59;;;;;;;;;79.00;66.25;;;;;20.90;48.16;95246.00;5004002;28;9275;-72
2022/12/29 07:36:25;;;;;;;;;68.25;58.25;;;;;20.97;48.05;95249.34;5005997;28;10007;-71
2022/12/29 07:39:00;;;;;;;;;68.25;58.25;;;;;21.02;47.60;95246.03;5006623;28;8828;-71
2022/12/29 07:41:26;;;;;;;;;68.25;58.25;;;;;21.03;47.60;95244.81;4989282;28;9196;-71
2022/12/29 07:43:53;;;;;;;;;66.00;57.00;;;;;20.99;47.99;95248.88;5006630;28;8843;-75
2022/12/29 07:46:30;;;;;;;;;75.25;63.25;;;;;20.94;47.79;95252.19;4985771;28;9622;-75
2022/12/29 07:49:17;;;;;;;;;68.00;58.00;;;;;20.97;47.89;95260.41;5005237;28;9761;-76
2022/12/29 07:51:43;;;;;;;;;70.00;58.25;;;;;21.01;47.82;95255.56;5003882;28;8880;-73
2022/12/29 07:54:12;;;;;;;;;66.00;57.25;;;;;20.93;48.32;95261.72;5009314;28;8832;-71
2022/12/29 07:56:39;;;;;;;;;68.00;57.00;;;;;20.93;48.18;95265.28;5004717;28;8871;-70
2022/12/29 07:59:06;;;;;;;;;75.25;63.25;;;;;20.94;48.14;95264.06;4998558;28;8890;-70
2022/12/29 08:01:33;;;;;;;;;68.25;57.25;;;;;20.96;48.10;95260.88;4998159;28;10016;-71
2022/12/29 08:04:00;;;;;;;;;69.50;58.25;;;;;20.97;48.23;95265.19;4998665;28;9759;-70
2022/12/29 08:06:28;;;;;;;;;69.75;58.25;;;;;20.98;48.07;95277.84;4998830;28;8901;-70
2022/12/29 08:08:56;;;;;;;;;68.50;58.50;;;;;20.97;48.06;95273.50;4997315;28;8848;-70
2022/12/29 08:11:23;;;;;;;;;68.25;57.00;;;;;20.98;48.26;95275.84;4998552;28;9476;-70
2022/12/29 08:13:50;;;;;;;;;77.25;64.25;;;;;20.95;48.22;95276.69;4998204;28;9837;-70
2022/12/29 08:16:17;;;;;;;;;68.25;57.25;;;;;20.97;48.23;95281.81;4998297;28;10230;-70
2022/12/29 08:18:44;;;;;;;;;77.00;64.25;;;;;20.93;48.30;95286.66;4999068;28;9646;-69
2022/12/29 08:21:11;;;;;;;;;66.00;57.00;;;;;20.93;48.41;95289.44;5003308;28;9946;-74
2022/12/29 08:23:38;;;;;;;;;80.75;66.25;;;;;21.05;40.68;95299.81;4999456;28;9929;-79
2022/12/29 08:26:06;;;;;;;;;80.50;68.00;;;;;21.06;37.10;95297.81;4997102;28;10059;-73
2022/12/29 08:28:33;;;;;;;;;75.75;62.25;;;;;20.95;36.15;95298.09;4997502;28;10925;-76
2022/12/29 08:31:01;;;;;;;;;79.50;65.00;;;;;20.78;36.19;95300.09;4994757;28;9784;-75
2022/12/29 08:33:29;;;;;;;;;79.25;66.25;;;;;20.61;36.73;95302.88;5000858;28;10510;-79
2022/12/29 08:36:04;;;;;;;;;71.25;60.25;;;;;20.46;39.63;95299.69;5002989;28;10051;-75
2022/12/29 08:38:31;;;;;;;;;72.50;60.25;;;;;20.37;41.67;95305.81;4995719;28;9663;-83
2022/12/29 08:41:00;;;;;;;;;80.75;66.75;;;;;20.48;43.80;95316.63;4998319;28;8859;-82
2022/12/29 08:43:28;;;;;;;;;80.00;67.00;;;;;20.53;45.37;95318.91;5002182;28;11114;-73
2022/12/29 08:45:55;;;;;;;;;73.00;61.50;;;;;20.49;47.25;95312.66;4999858;28;10292;-74
2022/12/29 08:48:22;;;;;;;;;72.00;60.75;;;;;20.53;50.81;95316.13;4996010;28;8986;-80
2022/12/29 08:50:50;;;;;;;;;73.50;61.25;;;;;20.64;51.32;95310.31;4996724;28;8845;-72
2022/12/29 08:53:17;;;;;;;;;76.25;64.25;;;;;20.68;45.65;95310.22;4998952;28;8843;-71
2022/12/29 08:55:58;;;;;;;;;72.50;61.25;;;;;20.67;48.00;95314.22;4998020;28;10039;-79
2022/12/29 08:58:39;;;;;;;;;68.25;58.25;;;;;20.70;46.61;95319.66;4998529;28;8972;-70
2022/12/29 09:01:06;;;;;;;;;79.00;66.00;;;;;20.74;48.07;95316.06;4979855;28;8986;-69
2022/12/29 09:03:33;;;;;;;;;68.75;58.00;;;;;20.76;48.80;95313.66;4986696;28;9954;-70
2022/12/29 09:06:21;;;;;;;;;69.75;59.50;;;;;20.80;49.02;95303.22;5001483;28;8821;-72
2022/12/29 09:08:48;;;;;;;;;74.50;61.25;;;;;20.78;49.31;95298.13;4979720;28;8900;-69
2022/12/29 09:11:23;;;;;;;;;71.25;59.75;;;;;20.77;50.68;95302.13;4991364;28;8916;-79
2022/12/29 09:13:51;;;;;;;;;72.25;60.50;;;;;20.86;50.13;95307.03;4995087;28;8922;-80
2022/12/29 09:16:21;;;;;;;;;71.75;60.75;;;;;20.89;50.63;95305.41;4991354;28;9006;-81
2022/12/29 09:18:49;;;;;;;;;80.25;66.25;;;;;20.89;50.73;95314.47;4993492;28;8894;-78
2022/12/29 09:21:16;;;;;;;;;80.25;68.00;;;;;20.90;50.85;95316.03;4997392;28;10224;-81
2022/12/29 09:23:43;;;;;;;;;76.25;63.50;;;;;20.91;50.93;95316.81;4995771;28;10043;-78
2022/12/29 09:26:09;;;;;;;;;79.25;67.00;;;;;20.90;50.98;95310.50;4997997;28;9728;-75
2022/12/29 09:28:36;;;;;;;;;77.25;64.25;;;;;20.89;50.79;95316.47;4997746;28;10193;-77
2022/12/29 09:31:04;;;;;;;;;87.25;70.25;;;;;20.87;49.41;95325.22;4979153;28;8876;-75
2022/12/29 09:33:33;;;;;;;;;91.50;76.25;;;;;20.86;49.76;95318.09;4993826;28;10294;-76
2022/12/29 09:36:00;;;;;;;;;89.67;74.00;;;;;20.85;49.42;95319.34;5002634;28;11050;-75
2022/12/29 09:38:27;;;;;;;;;92.25;74.00;;;;;20.85;49.33;95320.13;4996811;28;9190;-78
2022/12/29 09:41:15;;;;;;;;;91.33;74.33;;;;;20.84;49.59;95323.31;4981875;28;10354;-78
2022/12/29 09:44:17;;;;;;;;;96.00;78.75;;;;;20.86;49.50;95334.72;4998444;28;9253;-78
2022/12/29 09:46:49;;;;;;;;;87.25;72.25;;;;;20.85;49.67;95333.97;4999067;28;11102;-85
2022/12/29 09:49:24;;;;;;;;;78.25;64.25;;;;;20.85;49.62;95338.75;4999173;28;10836;-77
2022/12/29 09:51:54;;;;;;;;;84.00;69.25;;;;;20.77;51.11;95334.59;5002064;28;8840;-68
2022/12/29 09:54:48;;;;;;;;;74.25;62.00;;;;;20.76;52.66;95331.03;4984631;28;10326;-79
2022/12/29 09:57:49;;;;;;;;;80.25;67.25;;;;;20.78;53.20;95333.34;5002328;28;8848;-76
2022/12/29 10:00:23;;;;;;;;;70.50;60.50;;;;;20.76;53.24;95319.94;5005736;28;9831;-76
2022/12/29 10:02:59;;;;;;;;;78.50;64.25;;;;;20.80;49.98;95325.41;5006989;28;8836;-75
2022/12/29 10:05:46;;;;;;;;;68.25;58.25;;;;;20.89;51.43;95322.03;4984462;28;10341;-75
2022/12/29 10:08:40;;;;;;;;;80.00;67.00;;;;;20.90;51.18;95323.59;5001565;28;10442;-75
2022/12/29 10:11:31;;;;;;;;;71.67;60.67;;;;;20.90;51.03;95327.13;5001998;28;10588;-75
2022/12/29 10:14:36;;;;;;;;;78.25;65.25;;;;;20.95;51.01;95320.28;5004233;28;10307;-74
2022/12/29 10:17:06;;;;;;;;;69.00;59.00;;;;;20.82;51.03;95334.81;4998478;28;9787;-73
2022/12/29 10:20:03;;;;;;;;;76.25;64.25;;;;;20.88;49.40;95332.31;4997104;28;9834;-74
2022/12/29 10:22:44;;;;;;;;;72.25;61.00;;;;;20.85;49.15;95336.75;4999576;28;11603;-73
2022/12/29 10:25:18;;;;;;;;;67.25;57.25;;;;;20.81;49.17;95340.81;4992057;28;9420;-73
2022/12/29 10:27:48;;;;;;;;;65.75;57.00;;;;;20.85;48.80;95347.06;5002024;28;9520;-75
2022/12/29 10:30:16;;;;;;;;;74.25;63.00;;;;;20.88;48.53;95345.41;5006206;28;8814;-75
2022/12/29 10:32:47;;;;;;;;;75.75;64.25;;;;;20.90;48.51;95349.28;4989256;28;12326;-74
2022/12/29 10:35:21;;;;;;;;;70.33;59.33;;;;;20.93;48.44;95345.66;5001124;28;10384;-75
2022/12/29 10:38:03;;;;;;;;;70.00;59.00;;;;;20.94;48.25;95344.44;5003860;28;9587;-75
2022/12/29 10:40:38;;;;;;;;;73.00;61.33;;;;;20.93;48.33;95339.31;5003781;28;9535;-75
2022/12/29 10:43:35;;;;;;;;;66.00;56.75;;;;;20.92;48.39;95337.75;5003682;28;9779;-75
2022/12/29 10:46:05;;;;;;;;;75.25;63.75;;;;;20.92;48.28;95335.78;4986344;28;9782;-75
2022/12/29 10:48:34;;;;;;;;;74.50;63.25;;;;;20.92;48.38;95326.69;4987557;28;9969;-75
2022/12/29 10:51:05;;;;;;;;;74.25;63.00;;;;;20.91;48.32;95334.22;5006871;28;10158;-75
2022/12/29 10:53:56;;;;;;;;;68.25;58.00;;;;;20.93;48.28;95326.25;5004023;28;10007;-75
2022/12/29 10:56:36;;;;;;;;;66.25;56.75;;;;;20.93;48.11;95319.94;5008270;28;9383;-75
2022/12/29 10:59:25;;;;;;;;;75.00;63.33;;;;;20.90;48.45;95318.03;5006108;28;9351;-82
2022/12/29 11:02:06;;;;;;;;;75.50;64.25;;;;;20.90;48.17;95313.28;5005360;28;10066;-74
2022/12/29 11:04:43;;;;;;;;;64.25;55.75;;;;;20.92;47.98;95305.31;4998917;28;9530;-75
2022/12/29 11:07:11;;;;;;;;;65.25;55.25;;;;;20.92;48.08;95304.50;5006687;28;9614;-74
2022/12/29 11:09:43;;;;;;;;;64.00;55.25;;;;;20.93;48.05;95306.06;5004925;28;8901;-73
2022/12/29 11:12:25;;;;;;;;;64.75;56.00;;;;;20.94;48.29;95307.63;5008534;28;8879;-84
2022/12/29 11:15:10;;;;;;;;;65.25;55.25;;;;;20.94;48.56;95304.84;5005324;28;8907;-74
2022/12/29 11:17:55;;;;;;;;;66.00;57.25;;;;;20.94;48.99;95299.31;5006283;28;8959;-74
2022/12/29 11:20:28;;;;;;;;;76.25;63.25;;;;;20.91;49.54;95300.19;5002074;28;8868;-75
2022/12/29 11:22:55;;;;;;;;;74.25;62.25;;;;;20.94;50.17;95293.78;5008332;28;9730;-74
2022/12/29 11:25:22;;;;;;;;;74.75;63.00;;;;;20.95;50.43;95287.03;4990137;28;9480;-72
2022/12/29 11:28:14;;;;;;;;;65.75;56.00;;;;;20.97;51.00;95279.06;5003685;28;10159;-74
2022/12/29 11:30:42;;;;;;;;;70.00;59.00;;;;;20.99;51.23;95274.63;4988091;28;8843;-76
2022/12/29 11:33:09;;;;;;;;;65.50;56.00;;;;;20.86;52.01;95271.78;5008088;28;8931;-74
2022/12/29 11:35:42;;;;;;;;;74.67;63.00;;;;;20.93;51.74;95267.28;5005923;28;8859;-72
2022/12/29 11:38:25;;;;;;;;;74.33;63.00;;;;;20.95;51.17;95270.38;5006588;28;9320;-72
2022/12/29 11:40:52;;;;;;;;;75.33;63.00;;;;;20.97;50.97;95276.28;5005419;28;9330;-70
2022/12/29 11:43:37;;;;;;;;;67.75;57.75;;;;;20.85;51.48;95277.78;5005849;28;9842;-68
2022/12/29 11:46:05;;;;;;;;;74.67;63.67;;;;;20.85;52.48;95273.00;5006188;28;9752;-66
2022/12/29 11:48:38;;;;;;;;;64.50;55.75;;;;;20.76;53.41;95272.09;5007213;28;9419;-72
2022/12/29 11:51:06;;;;;;;;;70.33;59.33;;;;;20.88;53.14;95276.13;5008512;28;9755;-72
2022/12/29 11:53:47;;;;;;;;;72.00;60.33;;;;;20.92;53.45;95274.81;4989437;28;9439;-74
2022/12/29 11:56:19;;;;;;;;;62.25;54.00;;;;;20.98;53.68;95277.84;5006920;28;11923;-73
2022/12/29 11:58:49;;;;;;;;;74.00;61.67;;;;;20.97;53.78;95282.59;5005958;28;9256;-73
2022/12/29 12:01:32;;;;;;;;;66.50;55.50;;;;;21.01;53.86;95276.94;5005067;28;9247;-73
2022/12/29 12:04:04;;;;;;;;;63.75;55.50;;;;;20.98;53.90;95266.75;5001123;28;8852;-74
2022/12/29 12:06:36;;;;;;;;;74.33;63.00;;;;;21.01;53.96;95265.88;5002960;28;8847;-73
2022/12/29 12:09:10;;;;;;;;;75.75;64.50;;;;;21.00;54.10;95256.78;5003833;28;10286;-73
2022/12/29 12:11:43;;;;;;;;;65.25;55.50;;;;;20.99;54.28;95251.66;5005876;28;9387;-73
2022/12/29 12:14:36;;;;;;;;;74.33;63.33;;;;;20.98;54.09;95247.34;4996944;28;8824;-72
2022/12/29 12:17:41;;;;;;;;;62.25;54.00;;;;;20.93;54.36;95232.03;4995533;28;10582;-71
2022/12/29 12:20:37;;;;;;;;;64.00;56.00;;;;;20.96;54.42;95241.47;5002174;28;11200;-76